createdAt,value
2019-02-27T00:00:52.264Z,10.60
2019-02-27T00:03:34.185Z,10.50
2019-02-27T00:06:26.382Z,10.40
2019-02-27T00:09:07.708Z,10.40
2019-02-27T00:11:48.396Z,10.40
2019-02-27T00:14:31.161Z,10.30
2019-02-27T00:17:15.072Z,10.20
2019-02-27T00:20:04.103Z,10.20
2019-02-27T00:22:44.249Z,10.10
2019-02-27T00:25:25.242Z,10.20
2019-02-27T00:28:12.754Z,10.30
2019-02-27T00:30:53.958Z,10.40
2019-02-27T00:33:35.388Z,10.40
2019-02-27T00:36:22.791Z,10.40
2019-02-27T00:39:03.569Z,10.30
2019-02-27T00:41:46.015Z,10.30
2019-02-27T00:44:27.466Z,10.40
2019-02-27T00:47:09.977Z,10.40
2019-02-27T00:49:51.661Z,10.40
2019-02-27T00:52:32.965Z,10.30
2019-02-27T00:55:12.662Z,10.30
2019-02-27T00:58:01.164Z,10.10
2019-02-27T01:01:04.330Z,10.00
2019-02-27T01:07:07.640Z,9.70
2019-02-27T01:10:12.384Z,9.80
2019-02-27T01:12:57.682Z,9.80
2019-02-27T01:15:37.300Z,9.80
2019-02-27T01:18:18.718Z,9.80
2019-02-27T01:21:23.318Z,9.90
2019-02-27T01:24:04.870Z,9.80
2019-02-27T01:26:49.717Z,9.70
2019-02-27T01:29:34.689Z,9.70
2019-02-27T01:32:16.916Z,9.70
2019-02-27T01:34:58.204Z,9.80
2019-02-27T01:37:42.938Z,9.80
2019-02-27T01:40:23.910Z,9.70
2019-02-27T01:43:06.257Z,9.70
2019-02-27T01:48:56.575Z,9.70
2019-02-27T01:51:38.214Z,9.70
2019-02-27T01:54:07.711Z,9.80
2019-02-27T01:57:15.279Z,9.70
2019-02-27T02:00:03.789Z,9.70
2019-02-27T02:02:49.268Z,9.70
2019-02-27T02:05:30.658Z,9.70
2019-02-27T02:08:34.017Z,9.70
2019-02-27T02:11:15.236Z,9.60
2019-02-27T02:13:56.608Z,9.60
2019-02-27T02:16:37.621Z,9.50
2019-02-27T02:19:19.008Z,9.40
2019-02-27T02:22:01.902Z,9.20
2019-02-27T02:24:43.172Z,9.20
2019-02-27T02:27:23.805Z,9.30
2019-02-27T02:30:05.085Z,9.30
2019-02-27T02:32:59.722Z,9.30
2019-02-27T02:35:40.785Z,9.00
2019-02-27T02:38:22.178Z,9.00
2019-02-27T02:41:07.994Z,9.10
2019-02-27T02:43:46.256Z,9.30
2019-02-27T02:46:53.813Z,9.30
2019-02-27T02:49:50.025Z,9.10
2019-02-27T02:52:30.844Z,9.00
2019-02-27T02:55:12.521Z,9.10
2019-02-27T02:57:54.048Z,9.10
2019-02-27T03:00:37.858Z,9.00
2019-02-27T03:03:16.975Z,8.90
2019-02-27T03:05:59.692Z,8.90
2019-02-27T03:08:41.417Z,8.90
2019-02-27T03:11:22.853Z,8.80
2019-02-27T03:14:04.339Z,8.80
2019-02-27T03:16:45.762Z,8.80
2019-02-27T03:19:53.324Z,8.80
2019-02-27T03:23:00.817Z,8.80
2019-02-27T03:25:41.985Z,8.80
2019-02-27T03:28:23.486Z,8.80
2019-02-27T03:31:04.839Z,8.80
2019-02-27T03:33:45.594Z,8.60
2019-02-27T03:36:26.861Z,8.60
2019-02-27T03:39:07.437Z,8.60
2019-02-27T03:41:48.104Z,8.40
2019-02-27T03:44:57.046Z,8.50
2019-02-27T03:47:38.234Z,8.60
2019-02-27T03:50:19.896Z,8.70
2019-02-27T03:53:01.412Z,8.60
2019-02-27T03:55:44.137Z,8.70
2019-02-27T03:58:30.444Z,8.80
2019-02-27T04:01:09.547Z,9.00
2019-02-27T04:03:54.142Z,9.00
2019-02-27T04:06:33.105Z,9.00
2019-02-27T04:09:19.911Z,9.10
2019-02-27T04:11:47.471Z,9.00
2019-02-27T04:14:42.048Z,8.80
2019-02-27T04:17:52.359Z,8.80
2019-02-27T04:20:36.166Z,8.70
2019-02-27T04:23:16.806Z,8.80
2019-02-27T04:25:58.465Z,8.80
2019-02-27T04:28:55.323Z,8.80
2019-02-27T04:31:38.287Z,8.80
2019-02-27T04:34:19.695Z,8.90
2019-02-27T04:37:02.476Z,8.90
2019-02-27T04:39:46.201Z,8.90
2019-02-27T04:42:27.181Z,9.00
2019-02-27T04:45:12.005Z,9.00
2019-02-27T04:47:51.040Z,8.80
2019-02-27T04:50:38.643Z,8.60
2019-02-27T04:53:23.492Z,8.50
2019-02-27T04:56:04.713Z,8.50
2019-02-27T04:58:52.536Z,8.40
2019-02-27T05:01:36.407Z,8.40
2019-02-27T05:04:22.721Z,8.30
2019-02-27T05:07:03.964Z,8.30
2019-02-27T05:09:45.286Z,8.20
2019-02-27T05:12:14.840Z,8.20
2019-02-27T05:18:18.383Z,8.30
2019-02-27T05:20:59.075Z,8.30
2019-02-27T05:23:40.197Z,8.40
2019-02-27T05:26:20.938Z,8.40
2019-02-27T05:29:01.660Z,8.50
2019-02-27T05:31:42.786Z,8.50
2019-02-27T05:34:22.221Z,8.50
2019-02-27T05:37:05.292Z,8.60
2019-02-27T05:39:45.777Z,8.70
2019-02-27T05:45:31.176Z,8.50
2019-02-27T05:48:10.508Z,8.50
2019-02-27T05:50:51.995Z,8.50
2019-02-27T05:53:33.588Z,8.50
2019-02-27T05:56:16.267Z,8.60
2019-02-27T05:58:58.905Z,8.50
2019-02-27T06:01:59.376Z,8.60
2019-02-27T06:04:40.026Z,8.60
2019-02-27T06:07:23.114Z,8.50
2019-02-27T06:10:04.597Z,8.60
2019-02-27T06:12:45.279Z,8.60
2019-02-27T06:15:28.620Z,8.50
2019-02-27T06:18:08.978Z,8.40
2019-02-27T06:20:50.347Z,8.40
2019-02-27T06:23:30.976Z,8.40
2019-02-27T06:26:12.348Z,8.50
2019-02-27T06:28:41.954Z,8.60
2019-02-27T06:31:30.542Z,8.60
2019-02-27T06:34:11.508Z,8.40
2019-02-27T06:36:53.029Z,8.30
2019-02-27T06:39:34.433Z,8.30
2019-02-27T06:42:16.399Z,8.40
2019-02-27T06:44:57.736Z,8.60
2019-02-27T06:47:39.034Z,8.80
2019-02-27T06:50:25.170Z,8.90
2019-02-27T06:53:03.553Z,9.00
2019-02-27T06:55:44.819Z,9.00
2019-02-27T06:58:26.424Z,9.20
2019-02-27T07:01:09.681Z,9.30
2019-02-27T07:03:52.151Z,9.40
2019-02-27T07:06:36.866Z,9.50
2019-02-27T07:09:18.233Z,9.50
2019-02-27T07:11:59.849Z,9.60
2019-02-27T07:14:29.334Z,9.80
2019-02-27T07:17:17.907Z,9.90
2019-02-27T07:20:08.780Z,10.00
2019-02-27T07:22:50.993Z,10.00
2019-02-27T07:25:32.097Z,10.10
2019-02-27T07:28:20.925Z,10.20
2019-02-27T07:31:02.212Z,10.40
2019-02-27T07:33:43.710Z,10.50
2019-02-27T07:36:25.857Z,10.60
2019-02-27T07:39:43.126Z,10.60
2019-02-27T07:42:24.471Z,10.70
2019-02-27T07:45:08.084Z,10.90
2019-02-27T07:47:49.241Z,10.90
2019-02-27T07:50:29.908Z,11.00
2019-02-27T07:53:17.458Z,11.10
2019-02-27T07:55:56.117Z,11.20
2019-02-27T07:58:38.096Z,11.40
2019-02-27T08:01:20.942Z,11.50
2019-02-27T08:04:01.719Z,11.60
2019-02-27T08:06:44.332Z,11.70
2019-02-27T08:09:15.927Z,11.90
2019-02-27T08:12:00.646Z,12.00
2019-02-27T08:14:41.434Z,12.10
2019-02-27T08:17:23.534Z,12.30
2019-02-27T08:20:04.750Z,12.40
2019-02-27T08:22:45.752Z,12.50
2019-02-27T08:25:27.102Z,12.60
2019-02-27T08:28:08.550Z,12.70
2019-02-27T08:30:37.935Z,12.90
2019-02-27T08:33:26.381Z,13.00
2019-02-27T08:36:14.792Z,13.10
2019-02-27T08:38:55.763Z,13.20
2019-02-27T08:41:36.277Z,13.40
2019-02-27T08:44:17.814Z,13.40
2019-02-27T08:46:58.402Z,13.50
2019-02-27T08:49:40.027Z,13.60
2019-02-27T08:52:20.748Z,13.70
2019-02-27T08:55:05.442Z,13.70
2019-02-27T08:57:44.118Z,13.90
2019-02-27T09:00:25.588Z,14.00
2019-02-27T09:03:06.946Z,14.10
2019-02-27T09:05:36.378Z,14.20
2019-02-27T09:08:25.560Z,14.30
2019-02-27T09:11:06.843Z,14.40
2019-02-27T09:13:47.869Z,14.60
2019-02-27T09:16:29.172Z,14.70
2019-02-27T09:21:51.391Z,14.90
2019-02-27T09:24:32.332Z,15.00
2019-02-27T09:27:13.000Z,15.00
2019-02-27T09:29:54.838Z,15.20
2019-02-27T09:32:43.324Z,15.20
2019-02-27T09:35:25.749Z,15.40
2019-02-27T09:38:08.608Z,15.40
2019-02-27T09:40:49.004Z,15.50
2019-02-27T09:43:32.132Z,15.50
2019-02-27T09:46:12.878Z,15.50
2019-02-27T09:48:55.788Z,15.50
2019-02-27T09:51:25.219Z,15.60
2019-02-27T09:54:14.017Z,15.60
2019-02-27T09:57:02.897Z,15.70
2019-02-27T09:59:44.930Z,15.80
2019-02-27T10:02:14.398Z,15.90
2019-02-27T10:05:03.825Z,16.00
2019-02-27T10:07:34.282Z,16.20
2019-02-27T10:10:22.939Z,16.30
2019-02-27T10:13:04.128Z,16.40
2019-02-27T10:15:34.458Z,16.50
2019-02-27T10:18:23.731Z,16.60
2019-02-27T10:21:05.079Z,16.70
2019-02-27T10:23:47.724Z,16.80
2019-02-27T10:26:28.359Z,16.90
2019-02-27T10:29:10.968Z,17.00
2019-02-27T10:31:51.862Z,17.10
2019-02-27T10:34:32.638Z,17.10
2019-02-27T10:37:16.520Z,17.20
2019-02-27T10:39:56.339Z,17.30
2019-02-27T10:42:37.811Z,17.40
2019-02-27T10:45:19.226Z,17.50
2019-02-27T10:48:00.312Z,17.60
2019-02-27T10:50:41.045Z,17.70
2019-02-27T10:53:26.745Z,17.80
2019-02-27T10:56:04.813Z,17.90
2019-02-27T10:58:45.047Z,18.00
2019-02-27T11:01:36.439Z,18.10
2019-02-27T11:04:05.574Z,18.10
2019-02-27T11:06:54.001Z,18.10
2019-02-27T11:09:34.740Z,18.20
2019-02-27T11:12:15.345Z,18.30
2019-02-27T11:14:56.801Z,18.50
2019-02-27T11:17:37.702Z,18.50
2019-02-27T11:20:21.055Z,18.50
2019-02-27T11:23:06.746Z,18.50
2019-02-27T11:25:45.221Z,18.60
2019-02-27T11:28:24.823Z,18.70
2019-02-27T11:31:08.438Z,18.80
2019-02-27T11:33:48.659Z,18.80
2019-02-27T11:36:29.869Z,18.90
2019-02-27T11:39:11.043Z,18.90
2019-02-27T11:41:50.610Z,19.10
2019-02-27T11:44:20.021Z,19.20
2019-02-27T11:47:11.323Z,19.20
2019-02-27T11:49:54.696Z,19.20
2019-02-27T11:52:35.595Z,19.10
2019-02-27T11:55:16.927Z,18.90
2019-02-27T11:57:58.334Z,18.80
2019-02-27T12:00:39.667Z,18.50
2019-02-27T12:03:20.368Z,18.40
2019-02-27T12:06:01.850Z,18.20
2019-02-27T12:08:43.538Z,18.20
2019-02-27T12:11:24.708Z,18.10
2019-02-27T12:14:08.986Z,18.10
2019-02-27T12:16:51.734Z,18.20
2019-02-27T12:19:33.104Z,18.10
2019-02-27T12:22:14.437Z,18.20
2019-02-27T12:24:55.170Z,18.30
2019-02-27T12:27:48.251Z,18.30
2019-02-27T12:30:19.175Z,18.40
2019-02-27T12:33:00.630Z,18.50
2019-02-27T12:35:44.147Z,18.60
2019-02-27T12:38:24.350Z,18.70
2019-02-27T12:41:05.506Z,18.70
2019-02-27T12:43:52.161Z,18.90
2019-02-27T12:46:29.108Z,18.80
2019-02-27T12:48:58.570Z,18.80
2019-02-27T12:51:47.025Z,18.80
2019-02-27T12:54:35.443Z,18.90
2019-02-27T12:57:23.844Z,18.90
2019-02-27T13:00:05.805Z,18.80
2019-02-27T13:02:47.472Z,18.90
2019-02-27T13:05:28.783Z,18.80
2019-02-27T13:08:11.262Z,18.50
2019-02-27T13:10:52.429Z,18.40
2019-02-27T13:13:35.394Z,18.30
2019-02-27T13:17:02.035Z,18.20
2019-02-27T13:19:46.491Z,18.10
2019-02-27T13:22:29.171Z,18.00
2019-02-27T13:25:09.706Z,17.90
2019-02-27T13:27:51.017Z,17.70
2019-02-27T13:30:31.728Z,17.60
2019-02-27T13:33:13.287Z,17.40
2019-02-27T13:35:59.331Z,17.30
2019-02-27T13:38:37.292Z,17.30
2019-02-27T13:41:18.747Z,17.20
2019-02-27T13:44:01.341Z,17.00
2019-02-27T13:46:42.423Z,16.90
2019-02-27T13:49:23.438Z,16.80
2019-02-27T13:52:04.644Z,16.70
2019-02-27T13:54:46.112Z,16.70
2019-02-27T13:57:27.922Z,16.60
2019-02-27T14:00:09.383Z,16.60
2019-02-27T14:02:50.558Z,16.60
2019-02-27T14:05:51.054Z,16.60
2019-02-27T14:08:20.431Z,16.60
2019-02-27T14:14:11.042Z,16.50
2019-02-27T14:16:52.107Z,16.40
2019-02-27T14:19:33.535Z,16.40
2019-02-27T14:22:14.543Z,16.20
2019-02-27T14:24:55.870Z,16.10
2019-02-27T14:27:39.638Z,16.10
2019-02-27T14:30:20.365Z,16.00
2019-02-27T14:33:01.127Z,15.90
2019-02-27T14:35:40.677Z,15.80
2019-02-27T14:38:29.149Z,15.70
2019-02-27T14:41:11.142Z,15.60
2019-02-27T14:43:52.702Z,15.60
2019-02-27T14:46:34.223Z,15.50
2019-02-27T14:49:15.049Z,15.40
2019-02-27T14:51:56.114Z,15.40
2019-02-27T14:54:37.393Z,15.50
2019-02-27T14:57:19.026Z,15.50
2019-02-27T15:00:02.463Z,15.40
2019-02-27T15:02:42.373Z,15.20
2019-02-27T15:05:23.869Z,15.20
2019-02-27T15:08:04.948Z,15.10
2019-02-27T15:10:46.039Z,15.10
2019-02-27T15:13:29.161Z,15.10
2019-02-27T15:16:09.708Z,15.10
2019-02-27T15:18:54.785Z,15.00
2019-02-27T15:21:33.524Z,15.00
2019-02-27T15:24:14.928Z,14.90
2019-02-27T15:26:55.506Z,14.80
2019-02-27T15:29:36.926Z,14.60
2019-02-27T15:32:06.456Z,14.50
2019-02-27T15:34:54.858Z,14.60
2019-02-27T15:37:43.343Z,14.60
2019-02-27T15:40:28.622Z,14.60
2019-02-27T15:43:11.211Z,14.50
2019-02-27T15:45:50.617Z,14.50
2019-02-27T15:48:31.365Z,14.40
2019-02-27T15:51:12.845Z,14.30
2019-02-27T15:53:54.374Z,14.20
2019-02-27T15:56:35.164Z,14.20
2019-02-27T15:59:15.871Z,14.20
2019-02-27T16:02:02.409Z,14.10
2019-02-27T16:04:39.580Z,14.10
2019-02-27T16:07:20.687Z,13.90
2019-02-27T16:10:06.839Z,13.90
2019-02-27T16:12:45.131Z,14.00
2019-02-27T16:15:26.314Z,13.80
2019-02-27T16:18:07.502Z,13.80
2019-02-27T16:20:49.859Z,13.80
2019-02-27T16:23:32.020Z,13.80
2019-02-27T16:26:13.401Z,13.70
2019-02-27T16:28:54.916Z,13.70
2019-02-27T16:31:37.160Z,13.50
2019-02-27T16:34:17.758Z,13.50
2019-02-27T16:37:06.227Z,13.50
2019-02-27T16:39:55.351Z,13.60
2019-02-27T16:42:39.068Z,13.50
2019-02-27T16:45:21.127Z,13.40
2019-02-27T16:48:03.851Z,13.40
2019-02-27T16:50:45.666Z,13.40
2019-02-27T16:53:26.797Z,13.30
2019-02-27T16:56:11.448Z,13.40
2019-02-27T16:58:50.842Z,13.30
2019-02-27T17:01:32.140Z,13.30
2019-02-27T17:04:13.109Z,13.30
2019-02-27T17:06:54.493Z,13.10
2019-02-27T17:09:35.710Z,13.00
2019-02-27T17:12:17.195Z,12.90
2019-02-27T17:14:58.648Z,12.80
2019-02-27T17:17:40.716Z,12.90
2019-02-27T17:20:21.707Z,12.70
2019-02-27T17:23:07.684Z,12.60
2019-02-27T17:25:43.848Z,12.60
2019-02-27T17:28:25.338Z,12.60
2019-02-27T17:31:11.783Z,12.60
2019-02-27T17:33:49.105Z,12.50
2019-02-27T17:36:32.083Z,12.30
2019-02-27T17:39:13.224Z,12.20
2019-02-27T17:41:54.369Z,12.20
2019-02-27T17:44:35.342Z,12.10
2019-02-27T17:47:17.896Z,12.00
2019-02-27T17:49:58.728Z,12.00
2019-02-27T17:52:40.058Z,11.90
2019-02-27T17:55:21.299Z,11.80
2019-02-27T17:58:02.750Z,11.80
2019-02-27T18:00:49.801Z,11.90
2019-02-27T18:03:26.971Z,11.80
2019-02-27T18:06:08.314Z,11.80
2019-02-27T18:08:51.725Z,11.80
2019-02-27T18:11:33.974Z,11.90
2019-02-27T18:14:15.027Z,11.90
2019-02-27T18:16:59.306Z,11.80
2019-02-27T18:19:39.261Z,11.90
2019-02-27T18:22:18.970Z,11.90
2019-02-27T18:25:08.231Z,11.90
2019-02-27T18:27:50.863Z,11.90
2019-02-27T18:30:32.294Z,11.80
2019-02-27T18:33:13.981Z,11.80
2019-02-27T18:35:55.411Z,11.80
2019-02-27T18:38:36.227Z,11.80
2019-02-27T18:41:16.177Z,11.80
2019-02-27T18:43:55.810Z,11.80
2019-02-27T18:46:44.307Z,11.80
2019-02-27T18:49:25.936Z,11.70
2019-02-27T18:52:07.530Z,11.60
2019-02-27T18:54:54.702Z,11.50
2019-02-27T19:00:07.557Z,11.50
2019-02-27T19:02:37.095Z,11.50
2019-02-27T19:05:25.589Z,11.50
2019-02-27T19:08:33.160Z,11.40
2019-02-27T19:11:16.020Z,11.20
2019-02-27T19:13:57.626Z,11.00
2019-02-27T19:16:39.166Z,11.00
2019-02-27T19:19:20.461Z,11.10
2019-02-27T19:22:01.210Z,11.10
2019-02-27T19:24:32.432Z,11.00
2019-02-27T19:27:15.532Z,11.00
2019-02-27T19:29:56.754Z,11.00
2019-02-27T19:32:37.779Z,11.10
2019-02-27T19:35:21.679Z,11.10
2019-02-27T19:38:01.347Z,11.10
2019-02-27T19:40:31.358Z,11.10
2019-02-27T19:43:21.220Z,11.10
2019-02-27T19:46:12.774Z,11.20
2019-02-27T19:48:53.615Z,11.20
2019-02-27T19:51:23.539Z,11.20
2019-02-27T19:54:14.876Z,11.10
2019-02-27T19:57:07.917Z,11.10
2019-02-27T19:59:34.710Z,11.20
2019-02-27T20:02:04.933Z,11.20
2019-02-27T20:04:53.869Z,11.30
2019-02-27T20:07:24.185Z,11.30
2019-02-27T20:09:55.419Z,11.20
2019-02-27T20:12:26.191Z,11.20
2019-02-27T20:15:35.206Z,11.10
2019-02-27T20:18:08.412Z,10.90
2019-02-27T20:20:49.286Z,10.90
2019-02-27T20:23:30.277Z,11.00
2019-02-27T20:26:14.033Z,11.00
2019-02-27T20:28:53.801Z,11.10
2019-02-27T20:31:23.872Z,11.10
2019-02-27T20:34:12.794Z,11.10
2019-02-27T20:36:54.045Z,11.10
2019-02-27T20:39:36.161Z,11.10
2019-02-27T20:42:17.778Z,11.10
2019-02-27T20:44:59.416Z,11.00
2019-02-27T20:47:40.673Z,11.00
2019-02-27T20:50:34.168Z,10.90
2019-02-27T20:53:05.142Z,11.00
2019-02-27T20:55:46.061Z,11.10
2019-02-27T20:58:27.219Z,11.10
2019-02-27T21:01:11.097Z,11.10
2019-02-27T21:03:51.619Z,11.10
2019-02-27T21:06:32.693Z,11.10
2019-02-27T21:09:13.630Z,11.00
2019-02-27T21:11:55.147Z,11.00
2019-02-27T21:14:36.018Z,11.00
2019-02-27T21:17:21.137Z,11.00
2019-02-27T21:19:59.400Z,10.90
2019-02-27T21:22:40.901Z,10.90
2019-02-27T21:25:22.166Z,10.70
2019-02-27T21:28:06.621Z,10.70
2019-02-27T21:30:51.800Z,10.70
2019-02-27T21:33:29.415Z,10.10
2019-02-27T21:36:10.039Z,10.10
2019-02-27T21:38:51.481Z,10.30
2019-02-27T21:41:32.537Z,10.10
2019-02-27T21:44:25.059Z,9.90
2019-02-27T21:46:56.450Z,9.30
2019-02-27T21:49:37.093Z,9.10
2019-02-27T21:52:21.607Z,8.90
2019-02-27T21:55:01.648Z,9.00
2019-02-27T21:57:42.363Z,8.90
2019-02-27T22:00:24.057Z,9.10
2019-02-27T22:03:05.230Z,9.40
2019-02-27T22:05:46.965Z,9.60
2019-02-27T22:08:27.916Z,9.80
2019-02-27T22:11:09.084Z,9.90
2019-02-27T22:13:50.692Z,10.00
2019-02-27T22:16:31.648Z,10.10
2019-02-27T22:19:13.254Z,10.00
2019-02-27T22:21:54.786Z,10.10
2019-02-27T22:24:36.134Z,10.10
2019-02-27T22:27:17.570Z,9.70
2019-02-27T22:29:59.638Z,9.50
2019-02-27T22:32:40.719Z,9.30
2019-02-27T22:35:22.323Z,9.00
2019-02-27T22:38:03.360Z,8.90
2019-02-27T22:40:44.516Z,8.90
2019-02-27T22:43:25.964Z,8.90
2019-02-27T22:46:07.419Z,8.90
2019-02-27T22:48:48.793Z,8.80
2019-02-27T22:51:30.075Z,8.80
2019-02-27T22:54:11.301Z,8.70
2019-02-27T22:56:52.063Z,8.70
2019-02-27T22:59:21.573Z,8.60
2019-02-27T23:02:10.025Z,8.80
2019-02-27T23:05:01.169Z,8.90
2019-02-27T23:07:41.441Z,9.20
2019-02-27T23:10:22.820Z,9.30
2019-02-27T23:13:04.185Z,9.10
2019-02-27T23:15:44.818Z,9.00
2019-02-27T23:18:25.591Z,8.80
2019-02-27T23:21:06.325Z,9.00
2019-02-27T23:23:47.041Z,9.20
2019-02-27T23:26:28.276Z,9.30
2019-02-27T23:29:09.950Z,9.40
2019-02-27T23:31:54.696Z,9.50
2019-02-27T23:34:33.765Z,9.40
2019-02-27T23:37:14.709Z,9.30
2019-02-27T23:39:55.750Z,9.30
2019-02-27T23:42:36.849Z,9.40
2019-02-27T23:45:18.113Z,9.60
2019-02-27T23:47:59.297Z,9.60
2019-02-27T23:50:42.642Z,9.60
2019-02-27T23:53:27.183Z,9.60
2019-02-27T23:56:07.862Z,9.60
2019-02-27T23:58:49.201Z,9.60
